Time,TemperatureF,DewpointF,PressureIn,WindDirection,WindDirectionDegrees,WindSpeedMPH,WindSpeedGustMPH,Humidity,HourlyPrecipIn,Conditions,Clouds,dailyrainin,SoftwareType,DateUTC
2013-09-10 00:13:00,82.0,74.0,29.96,East,91,1.0,1.0,77,0.00,,,0.50,,2013-09-10 04:13:00,
2013-09-10 00:24:00,82.0,74.0,29.96,East,91,1.0,1.0,77,0.00,,,0.50,,2013-09-10 04:24:00,
2013-09-10 00:53:00,81.0,74.0,29.96,NNE,20,0.0,0.0,79,0.00,,,0.00,,2013-09-10 04:53:00,
2013-09-10 01:23:00,81.0,75.0,29.95,NNW,347,1.0,0.0,82,0.00,,,0.00,,2013-09-10 05:23:00,
2013-09-10 01:53:00,80.0,74.0,29.95,NE,35,2.0,0.0,82,0.00,,,0.00,,2013-09-10 05:53:00,
2013-09-10 02:22:00,81.0,73.0,29.95,East,94,1.0,0.0,78,0.00,,,0.00,,2013-09-10 06:22:00,
2013-09-10 02:52:00,82.0,73.0,29.95,NE,49,0.0,2.0,75,0.00,,,0.00,,2013-09-10 06:52:00,
2013-09-10 03:12:00,82.0,73.0,29.95,NE,51,2.0,2.0,75,0.00,,,0.00,,2013-09-10 07:12:00,
2013-09-10 03:22:00,82.0,73.0,29.95,NE,51,2.0,2.0,75,0.00,,,0.00,,2013-09-10 07:22:00,
2013-09-10 03:32:00,82.0,73.0,29.95,NE,51,2.0,2.0,75,0.00,,,0.00,,2013-09-10 07:32:00,
2013-09-10 03:42:00,82.0,73.0,29.95,NE,51,2.0,2.0,75,0.00,,,0.00,,2013-09-10 07:42:00,
2013-09-10 05:12:00,81.0,75.0,29.94,NNE,23,3.0,3.0,82,0.00,,,0.00,,2013-09-10 09:12:00,
2013-09-10 05:22:00,81.0,75.0,29.94,NNE,23,3.0,3.0,82,0.00,,,0.00,,2013-09-10 09:22:00,
2013-09-10 05:33:00,81.0,75.0,29.94,NNE,23,3.0,3.0,82,0.00,,,0.00,,2013-09-10 09:33:00,
2013-09-10 05:50:00,81.0,75.0,29.94,NE,35,3.0,3.0,81,0.00,,,0.00,,2013-09-10 09:50:00,
2013-09-10 06:23:00,81.0,75.0,29.94,NE,35,3.0,3.0,81,0.00,,,0.00,,2013-09-10 10:23:00,
2013-09-10 06:33:00,81.0,75.0,29.94,NE,35,3.0,3.0,81,0.00,,,0.00,,2013-09-10 10:33:00,
2013-09-10 07:12:00,81.0,75.0,29.95,NNE,18,2.0,2.0,81,0.00,,,0.00,,2013-09-10 11:12:00,
2013-09-10 07:22:00,81.0,75.0,29.95,NNE,18,2.0,2.0,81,0.00,,,0.00,,2013-09-10 11:22:00,
2013-09-10 07:30:00,82.0,75.0,29.96,East,84,2.0,3.0,80,0.00,,,0.00,,2013-09-10 11:30:00,
2013-09-10 07:52:00,82.0,75.0,29.96,East,84,2.0,3.0,80,0.00,,,0.00,,2013-09-10 11:52:00,
2013-09-10 08:02:00,82.0,75.0,29.96,East,84,2.0,3.0,80,0.00,,,0.00,,2013-09-10 12:02:00,
2013-09-10 08:12:00,82.0,75.0,29.96,East,84,2.0,3.0,80,0.00,,,0.00,,2013-09-10 12:12:00,
2013-09-10 08:22:00,82.0,75.0,29.96,East,84,2.0,3.0,80,0.00,,,0.00,,2013-09-10 12:22:00,
2013-09-10 09:11:00,83.0,75.0,29.99,SE,132,3.0,6.0,77,0.00,,,0.00,,2013-09-10 13:11:00,
2013-09-10 09:21:00,83.0,75.0,29.99,SE,132,3.0,6.0,77,0.00,,,0.00,,2013-09-10 13:21:00,
2013-09-10 09:32:00,83.0,75.0,29.99,SE,132,3.0,6.0,77,0.00,,,0.00,,2013-09-10 13:32:00,
2013-09-10 10:22:00,86.0,74.0,30.00,North,359,5.0,6.0,68,0.00,,,0.00,,2013-09-10 14:22:00,
2013-09-10 10:52:00,86.0,74.0,30.01,ESE,117,5.0,6.0,67,0.00,,,0.00,,2013-09-10 14:52:00,
2013-09-10 11:23:00,85.0,74.0,30.02,ESE,104,5.0,10.0,70,0.00,,,0.00,,2013-09-10 15:23:00,
2013-09-10 11:54:00,84.0,73.0,30.02,NE,46,8.0,8.0,70,0.00,,,0.00,,2013-09-10 15:54:00,
2013-09-10 12:13:00,85.0,74.0,30.01,NNE,20,5.0,5.0,69,0.00,,,0.00,,2013-09-10 16:13:00,
2013-09-10 12:23:00,85.0,74.0,30.01,NNE,20,5.0,5.0,69,0.00,,,0.00,,2013-09-10 16:23:00,
2013-09-10 12:53:00,87.0,73.0,30.01,SE,135,5.0,5.0,63,0.00,,,0.00,,2013-09-10 16:53:00,
2013-09-10 13:12:00,89.0,74.0,30.01,SE,127,7.0,7.0,62,0.00,,,0.00,,2013-09-10 17:12:00,
2013-09-10 13:23:00,89.0,74.0,30.01,SE,127,7.0,7.0,62,0.00,,,0.00,,2013-09-10 17:23:00,
2013-09-10 13:53:00,87.0,74.0,30.00,North,4,5.0,6.0,65,0.00,,,0.00,,2013-09-10 17:53:00,
2013-09-10 14:02:00,87.0,74.0,30.00,North,4,5.0,6.0,65,0.00,,,0.00,,2013-09-10 18:02:00,
2013-09-10 14:12:00,87.0,74.0,30.00,North,4,5.0,6.0,65,0.00,,,0.00,,2013-09-10 18:12:00,
2013-09-10 14:52:00,87.0,74.0,29.99,East,90,6.0,6.0,65,0.00,,,0.00,,2013-09-10 18:52:00,
2013-09-10 15:02:00,87.0,74.0,29.99,East,90,6.0,6.0,65,0.00,,,0.00,,2013-09-10 19:02:00,
2013-09-10 15:22:00,84.0,73.0,29.99,ENE,59,9.0,9.0,70,0.00,,,0.00,,2013-09-10 19:22:00,
2013-09-10 15:52:00,84.0,74.0,29.97,NNE,27,9.0,9.0,71,0.00,,,0.00,,2013-09-10 19:52:00,
2013-09-10 16:12:00,86.0,74.0,29.97,East,79,6.0,6.0,68,0.00,,,0.00,,2013-09-10 20:12:00,
2013-09-10 16:22:00,86.0,74.0,29.97,East,79,6.0,6.0,68,0.00,,,0.00,,2013-09-10 20:22:00,
2013-09-10 16:42:00,84.0,74.0,29.97,NNE,14,8.0,8.0,71,0.00,,,0.00,,2013-09-10 20:42:00,
2013-09-10 16:52:00,84.0,72.0,29.98,NNE,17,7.0,7.0,68,0.00,,,0.00,,2013-09-10 20:52:00,
2013-09-10 17:12:00,84.0,74.0,29.97,NNE,14,8.0,8.0,71,0.00,,,0.00,,2013-09-10 21:12:00,
2013-09-10 17:23:00,84.0,74.0,29.97,NNE,14,8.0,8.0,71,0.00,,,0.00,,2013-09-10 21:23:00,
2013-09-10 17:34:00,84.0,74.0,29.97,NNE,14,8.0,8.0,71,0.00,,,0.00,,2013-09-10 21:34:00,
2013-09-10 19:23:00,85.0,74.0,29.99,East,84,5.0,5.0,69,0.00,,,0.00,,2013-09-10 23:23:00,
2013-09-10 19:53:00,83.0,73.0,29.99,NNE,14,6.0,6.0,73,0.00,,,0.00,,2013-09-10 23:53:00,
2013-09-10 20:11:00,84.0,74.0,29.99,ESE,110,3.0,7.0,73,0.00,,,0.00,,2013-09-11 00:11:00,
2013-09-10 20:22:00,84.0,74.0,29.99,ESE,110,3.0,7.0,73,0.00,,,0.00,,2013-09-11 00:22:00,
2013-09-10 20:32:00,84.0,74.0,29.99,ESE,110,3.0,7.0,73,0.00,,,0.00,,2013-09-11 00:32:00,
2013-09-10 20:42:00,84.0,74.0,29.99,ESE,110,3.0,7.0,73,0.00,,,0.00,,2013-09-11 00:42:00,
2013-09-10 20:52:00,83.0,73.0,29.98,SE,129,5.0,5.0,73,0.00,,,0.00,,2013-09-11 00:52:00,
2013-09-10 21:11:00,83.0,74.0,29.99,North,359,7.0,7.0,74,0.00,,,0.00,,2013-09-11 01:11:00,
2013-09-10 21:21:00,83.0,74.0,30.00,ENE,70,5.0,5.0,75,0.00,,,0.00,,2013-09-11 01:21:00,
2013-09-10 21:42:00,83.0,74.0,30.00,East,82,3.0,3.0,75,0.00,,,0.00,,2013-09-11 01:42:00,
2013-09-10 21:53:00,83.0,74.0,30.00,East,82,3.0,3.0,75,0.00,,,0.00,,2013-09-11 01:53:00,
2013-09-10 22:02:00,83.0,74.0,30.00,East,82,3.0,3.0,75,0.00,,,0.00,,2013-09-11 02:02:00,
2013-09-10 22:52:00,83.0,74.0,30.01,ESE,105,5.0,5.0,75,0.00,,,0.00,,2013-09-11 02:52:00,
2013-09-10 23:02:00,83.0,74.0,30.01,ESE,105,5.0,5.0,75,0.00,,,0.00,,2013-09-11 03:02:00,
2013-09-10 23:12:00,83.0,74.0,30.01,ESE,105,5.0,5.0,75,0.00,,,0.00,,2013-09-11 03:12:00,
2013-09-10 23:22:00,83.0,74.0,30.01,ESE,105,5.0,5.0,75,0.00,,,0.00,,2013-09-11 03:22:00,
2013-09-10 23:55:00,81.0,75.0,30.01,East,93,4.0,6.0,83,0.00,,,0.00,,2013-09-11 03:55:00,